Etusivu
METAR-TAF:

METAR-TAF

Lentoasemat :

Reno, Nevada, Yhdysvallat

Leveyspiiri: 39-40-05N, Pituuspiiri: 119-52-35W, korkeus merenpinnasta: 1539 m

Tämänhetkinen sää

Tämä raportti tehtiin 25 minuuttia sitten, kello 19.35 UTC
Tuuli 11 kn lännestä/lounaasta
Lämpötila -4°C
Kosteus 74%
Ilmanpaine 1004 hPa
Näkyvyys: 0.4 km
heikkoa lumisadetta

METAR: KRTS 021935Z AUTO 25011KT 1/4SM -SN VV002 M04/M08 A2966 RMK AO2

Aika: 12:00 (20:00 UTC)


TAF: puuttuu

Säähavainnot ja -ennusteet yli 4000 lentoasemalta (METAR- ja TAF-raportit).

Käytössä olevat sääasemat on merkitty karttaan keltaisilla ja punaisilla pisteillä.

Aseta hiiri pisteen päälle nähdäksesi sääaseman nimen.

Klikkaa sitten nähdäksesi säähavainnot ja -ennusteet.

Kartan vaihtaminen: klikkaa mustalla rastilla varustettuja vihreitä pisteitä, niin voit zoomata sisään; viivalla varustettua vihreää pistettä, niin voit zoomata ulos tai vihreitä nuolia, niin pääset viereisille kartoille.


METAR-TAF: